Time;durP1;ratioP1;P1;durP2;ratioP2;P2;SDS_P1;SDS_P2;PMS_P1;PMS_P2;Temp;Humidity;BMP_temperature;BMP_pressure;BME280_temperature;BME280_humidity;BME280_pressure;Samples;Min_cycle;Max_cycle;Signal;HPM_P1;HPM_P2
2023/06/28 00:01:17;;;;;;;16.08;2.40;;;;;;;;;;5032074;28;20029;-73
2023/06/28 00:03:43;;;;;;;10.90;2.80;;;;;;;;;;5030047;28;20025;-73
2023/06/28 00:06:09;;;;;;;14.52;2.83;;;;;;;;;;5030659;28;20028;-74
2023/06/28 00:08:35;;;;;;;12.70;2.40;;;;;;;;;;5030691;28;20033;-73
2023/06/28 00:11:01;;;;;;;15.73;2.78;;;;;;;;;;5030695;28;20041;-73
2023/06/28 00:13:27;;;;;;;11.35;2.53;;;;;;;;;;5029869;28;20017;-74
2023/06/28 00:15:53;;;;;;;14.27;3.22;;;;;;;;;;5030190;28;20052;-73
2023/06/28 00:18:19;;;;;;;12.90;2.80;;;;;;;;;;5030750;28;20036;-72
2023/06/28 00:20:45;;;;;;;10.30;2.40;;;;;;;;;;5034503;28;20029;-73
2023/06/28 00:23:13;;;;;;;10.02;2.35;;;;;;;;;;5034210;28;20523;-74
2023/06/28 00:25:39;;;;;;;13.45;2.50;;;;;;;;;;5034612;28;20064;-73
2023/06/28 00:28:05;;;;;;;12.82;2.30;;;;;;;;;;5034021;28;20064;-72
2023/06/28 00:30:32;;;;;;;13.75;2.50;;;;;;;;;;5034585;28;20105;-73
2023/06/28 00:32:58;;;;;;;10.10;2.30;;;;;;;;;;5033946;28;20380;-74
2023/06/28 00:35:24;;;;;;;13.68;2.63;;;;;;;;;;5034859;28;20059;-73
2023/06/28 00:37:50;;;;;;;12.18;2.40;;;;;;;;;;5034520;28;20037;-74
2023/06/28 00:40:16;;;;;;;8.23;2.00;;;;;;;;;;5033866;28;20052;-72
2023/06/28 00:42:42;;;;;;;11.05;2.42;;;;;;;;;;5033460;28;20021;-73
2023/06/28 00:45:11;;;;;;;10.90;2.22;;;;;;;;;;5034476;28;20048;-73
2023/06/28 00:47:37;;;;;;;12.85;2.72;;;;;;;;;;5034412;28;20033;-73
2023/06/28 00:50:03;;;;;;;10.30;2.45;;;;;;;;;;5034242;28;20434;-74
2023/06/28 00:52:29;;;;;;;11.32;2.40;;;;;;;;;;5033458;28;20029;-73
2023/06/28 00:54:57;;;;;;;11.57;2.45;;;;;;;;;;5033451;28;20091;-73
2023/06/28 00:57:23;;;;;;;15.55;2.45;;;;;;;;;;5034195;28;20096;-74
2023/06/28 00:59:50;;;;;;;15.30;2.60;;;;;;;;;;5034063;28;20080;-74
2023/06/28 01:02:16;;;;;;;13.13;2.97;;;;;;;;;;5033221;28;20026;-73
2023/06/28 01:04:43;;;;;;;17.27;2.90;;;;;;;;;;5033947;28;20052;-73
2023/06/28 01:07:10;;;;;;;16.67;2.90;;;;;;;;;;5033424;28;20517;-73
2023/06/28 01:09:36;;;;;;;13.30;2.97;;;;;;;;;;5033563;28;20498;-73
2023/06/28 01:12:03;;;;;;;10.30;2.42;;;;;;;;;;5033127;28;20037;-73
2023/06/28 01:14:29;;;;;;;9.65;2.50;;;;;;;;;;5033478;28;20391;-73
2023/06/28 01:16:55;;;;;;;10.57;2.67;;;;;;;;;;5033655;28;20018;-73
2023/06/28 01:19:27;;;;;;;9.52;2.67;;;;;;;;;;5033288;28;20025;-75
2023/06/28 01:22:01;;;;;;;15.18;3.13;;;;;;;;;;5033355;28;20041;-73
2023/06/28 01:24:27;;;;;;;9.23;2.10;;;;;;;;;;5034723;28;20029;-74
2023/06/28 01:26:54;;;;;;;11.23;2.70;;;;;;;;;;5035000;28;20053;-73
2023/06/28 01:29:24;;;;;;;17.63;3.05;;;;;;;;;;5034965;28;20386;-75
2023/06/28 01:31:55;;;;;;;7.90;2.38;;;;;;;;;;5034355;28;20105;-73
2023/06/28 01:34:26;;;;;;;10.88;2.40;;;;;;;;;;5036022;28;20029;-73
2023/06/28 01:36:52;;;;;;;9.00;2.10;;;;;;;;;;5033988;28;20037;-72
2023/06/28 01:39:19;;;;;;;12.65;2.72;;;;;;;;;;5034231;28;20471;-73
2023/06/28 01:41:45;;;;;;;10.18;2.38;;;;;;;;;;5033988;28;20022;-73
2023/06/28 01:44:12;;;;;;;11.10;2.45;;;;;;;;;;5034242;28;20057;-74
2023/06/28 01:46:38;;;;;;;10.75;2.50;;;;;;;;;;5034177;28;20032;-73
2023/06/28 01:49:04;;;;;;;8.02;2.42;;;;;;;;;;5034139;28;20034;-74
2023/06/28 01:51:30;;;;;;;10.88;2.90;;;;;;;;;;5034028;28;20025;-72
2023/06/28 01:53:56;;;;;;;12.13;3.45;;;;;;;;;;5033614;28;20026;-72
2023/06/28 01:56:22;;;;;;;7.32;2.50;;;;;;;;;;5034010;28;20083;-74
2023/06/28 01:58:48;;;;;;;12.60;2.75;;;;;;;;;;5033971;28;20061;-72
2023/06/28 02:01:14;;;;;;;13.38;2.38;;;;;;;;;;5033860;28;20054;-74
2023/06/28 02:03:40;;;;;;;8.73;2.60;;;;;;;;;;5033679;28;20061;-73
2023/06/28 02:06:08;;;;;;;14.13;3.05;;;;;;;;;;5033907;28;20108;-73
2023/06/28 02:08:34;;;;;;;13.23;2.45;;;;;;;;;;5033626;28;20021;-74
2023/06/28 02:11:00;;;;;;;15.18;3.58;;;;;;;;;;5033936;28;20365;-74
2023/06/28 02:13:26;;;;;;;12.00;2.63;;;;;;;;;;5033437;28;20030;-73
2023/06/28 02:15:52;;;;;;;11.82;2.90;;;;;;;;;;5033663;28;20017;-73
2023/06/28 02:18:24;;;;;;;11.05;3.05;;;;;;;;;;5033766;28;20456;-73
2023/06/28 02:20:51;;;;;;;19.40;3.20;;;;;;;;;;5033663;28;20096;-74
2023/06/28 02:23:17;;;;;;;11.65;2.78;;;;;;;;;;5033439;28;20537;-73
2023/06/28 02:25:43;;;;;;;12.43;2.67;;;;;;;;;;5033450;28;20116;-73
2023/06/28 02:28:09;;;;;;;13.50;3.10;;;;;;;;;;5029965;28;20159;-73
2023/06/28 02:30:35;;;;;;;10.38;2.97;;;;;;;;;;5033247;28;20025;-73
2023/06/28 02:33:01;;;;;;;15.25;3.10;;;;;;;;;;5032546;28;20593;-72
2023/06/28 02:35:27;;;;;;;14.55;2.72;;;;;;;;;;5033144;28;20032;-74
2023/06/28 02:37:53;;;;;;;13.63;3.33;;;;;;;;;;5033003;28;20105;-74
2023/06/28 02:40:19;;;;;;;19.85;3.47;;;;;;;;;;5033748;28;20024;-73
2023/06/28 02:42:45;;;;;;;18.25;3.15;;;;;;;;;;5032123;28;20491;-72
2023/06/28 02:45:11;;;;;;;18.95;3.88;;;;;;;;;;5032997;28;20045;-74
2023/06/28 02:47:38;;;;;;;13.35;3.00;;;;;;;;;;5032768;28;20082;-73
2023/06/28 02:50:05;;;;;;;14.75;3.38;;;;;;;;;;5032918;28;20049;-74
2023/06/28 02:52:32;;;;;;;15.95;3.53;;;;;;;;;;5031946;28;20029;-74
2023/06/28 02:54:58;;;;;;;15.25;4.25;;;;;;;;;;5032767;28;20040;-72
2023/06/28 02:57:24;;;;;;;15.60;3.55;;;;;;;;;;5032523;28;20033;-73
2023/06/28 02:59:50;;;;;;;15.25;4.00;;;;;;;;;;5032724;28;20424;-74
2023/06/28 03:02:16;;;;;;;15.38;4.40;;;;;;;;;;5032497;28;20036;-73
2023/06/28 03:04:42;;;;;;;13.27;3.63;;;;;;;;;;5032828;28;20037;-72
2023/06/28 03:07:15;;;;;;;16.55;4.00;;;;;;;;;;5033187;28;20033;-74
2023/06/28 03:09:41;;;;;;;20.92;4.15;;;;;;;;;;5032790;28;20061;-73
2023/06/28 03:12:07;;;;;;;17.17;3.75;;;;;;;;;;5034712;28;20052;-73
2023/06/28 03:14:34;;;;;;;15.70;3.90;;;;;;;;;;5032889;28;20114;-73
2023/06/28 03:17:00;;;;;;;19.85;4.07;;;;;;;;;;5032683;28;20021;-74
2023/06/28 03:19:26;;;;;;;20.33;4.18;;;;;;;;;;5032811;28;20040;-73
2023/06/28 03:21:52;;;;;;;22.50;4.30;;;;;;;;;;5032430;28;20021;-72
2023/06/28 03:24:18;;;;;;;18.70;3.97;;;;;;;;;;5032879;28;20047;-73
2023/06/28 03:26:44;;;;;;;20.98;4.13;;;;;;;;;;5032467;28;20037;-73
2023/06/28 03:29:10;;;;;;;12.80;4.20;;;;;;;;;;5032199;28;20025;-73
2023/06/28 03:31:36;;;;;;;23.30;4.55;;;;;;;;;;5032273;28;20040;-76
2023/06/28 03:34:02;;;;;;;15.45;4.05;;;;;;;;;;5032252;28;20482;-74
2023/06/28 03:36:29;;;;;;;21.63;4.28;;;;;;;;;;5032772;28;20026;-72
2023/06/28 03:38:55;;;;;;;18.15;4.50;;;;;;;;;;5032530;28;20053;-73
2023/06/28 03:41:21;;;;;;;33.42;5.13;;;;;;;;;;5032743;28;20083;-73
2023/06/28 03:43:47;;;;;;;18.70;4.30;;;;;;;;;;5032348;28;20021;-72
2023/06/28 03:46:13;;;;;;;20.75;4.57;;;;;;;;;;5032229;28;20394;-73
2023/06/28 03:48:39;;;;;;;20.00;4.68;;;;;;;;;;5032226;28;20044;-75
2023/06/28 03:51:05;;;;;;;19.48;4.70;;;;;;;;;;5033602;28;20534;-73
2023/06/28 03:53:31;;;;;;;23.27;5.05;;;;;;;;;;5032603;28;20021;-73
2023/06/28 03:55:57;;;;;;;15.18;4.50;;;;;;;;;;5033374;28;20026;-73
2023/06/28 03:58:23;;;;;;;19.63;5.00;;;;;;;;;;5033377;28;20024;-73
2023/06/28 04:00:49;;;;;;;27.10;6.00;;;;;;;;;;5032858;28;20025;-73
2023/06/28 04:03:15;;;;;;;17.90;4.72;;;;;;;;;;5030281;28;20035;-74
2023/06/28 04:05:42;;;;;;;18.88;5.22;;;;;;;;;;5031691;28;20029;-74
2023/06/28 04:08:08;;;;;;;19.25;5.63;;;;;;;;;;5031430;28;20553;-74
2023/06/28 04:10:35;;;;;;;24.52;5.85;;;;;;;;;;5031818;28;20064;-72
2023/06/28 04:13:01;;;;;;;22.70;5.45;;;;;;;;;;5032196;28;20057;-74
2023/06/28 04:15:26;;;;;;;18.08;5.00;;;;;;;;;;5032788;28;20061;-73
2023/06/28 04:17:53;;;;;;;14.40;4.35;;;;;;;;;;5033052;28;20112;-72
2023/06/28 04:20:19;;;;;;;17.45;4.43;;;;;;;;;;5032258;28;20017;-74
2023/06/28 04:22:45;;;;;;;21.25;4.80;;;;;;;;;;5029758;28;20364;-76
2023/06/28 04:25:11;;;;;;;24.10;5.38;;;;;;;;;;5040614;28;20033;-76
2023/06/28 04:27:37;;;;;;;24.48;5.55;;;;;;;;;;5034305;28;20061;-80
2023/06/28 04:30:04;;;;;;;20.30;5.10;;;;;;;;;;5034779;28;20034;-77
2023/06/28 04:32:30;;;;;;;19.90;4.57;;;;;;;;;;5028026;28;20093;-78
2023/06/28 04:34:58;;;;;;;21.30;5.00;;;;;;;;;;5035997;28;20033;-77
2023/06/28 04:37:28;;;;;;;24.05;5.05;;;;;;;;;;5031751;28;20026;-77
2023/06/28 04:39:54;;;;;;;17.35;4.72;;;;;;;;;;5027541;28;20025;-76
2023/06/28 04:42:21;;;;;;;21.05;4.75;;;;;;;;;;5034530;28;20025;-77
2023/06/28 04:44:47;;;;;;;22.63;4.72;;;;;;;;;;5032496;28;20025;-77
2023/06/28 04:47:15;;;;;;;19.48;4.85;;;;;;;;;;5032899;28;20107;-78
2023/06/28 04:49:46;;;;;;;26.52;5.82;;;;;;;;;;5052778;28;20049;-78
2023/06/28 04:52:13;;;;;;;23.65;5.10;;;;;;;;;;5045829;28;20121;-76
2023/06/28 04:54:40;;;;;;;19.65;5.07;;;;;;;;;;5033461;28;20025;-71
2023/06/28 04:57:06;;;;;;;18.05;4.60;;;;;;;;;;5031117;28;20013;-72
2023/06/28 04:59:32;;;;;;;26.48;4.85;;;;;;;;;;5031117;28;20714;-71
2023/06/28 05:01:58;;;;;;;19.77;4.47;;;;;;;;;;5030820;28;20097;-72
2023/06/28 05:04:24;;;;;;;21.38;5.10;;;;;;;;;;5031095;28;20395;-72
2023/06/28 05:06:53;;;;;;;16.08;4.22;;;;;;;;;;5033131;28;20399;-73
2023/06/28 05:09:19;;;;;;;27.65;5.95;;;;;;;;;;5037385;28;20037;-71
2023/06/28 05:11:45;;;;;;;17.52;4.75;;;;;;;;;;5036947;28;20029;-72
2023/06/28 05:14:11;;;;;;;16.08;4.53;;;;;;;;;;5035465;28;20125;-70
2023/06/28 05:16:37;;;;;;;21.08;4.82;;;;;;;;;;5034739;28;20475;-71
2023/06/28 05:19:03;;;;;;;25.33;4.53;;;;;;;;;;5034703;28;20025;-72
2023/06/28 05:21:29;;;;;;;22.05;3.80;;;;;;;;;;5034679;28;20026;-71
2023/06/28 05:23:55;;;;;;;16.70;3.80;;;;;;;;;;5034240;28;20433;-71
2023/06/28 05:26:21;;;;;;;20.30;4.38;;;;;;;;;;5034385;28;20018;-71
2023/06/28 05:28:47;;;;;;;23.70;5.28;;;;;;;;;;5034284;28;20072;-74
2023/06/28 05:31:13;;;;;;;20.27;4.72;;;;;;;;;;5033863;28;20025;-71
2023/06/28 05:33:40;;;;;;;16.42;3.58;;;;;;;;;;5034082;28;20024;-71
2023/06/28 05:36:07;;;;;;;28.00;4.38;;;;;;;;;;5034766;28;20053;-70
2023/06/28 05:38:33;;;;;;;17.83;3.75;;;;;;;;;;5034596;28;20417;-70
2023/06/28 05:41:11;;;;;;;12.32;3.25;;;;;;;;;;5034797;28;20018;-70
2023/06/28 05:43:37;;;;;;;20.70;3.63;;;;;;;;;;5035040;28;20026;-71
2023/06/28 05:46:03;;;;;;;20.80;3.67;;;;;;;;;;5033402;28;20084;-73
2023/06/28 05:48:31;;;;;;;20.15;3.72;;;;;;;;;;5040044;28;20386;-71
2023/06/28 05:50:58;;;;;;;22.20;4.22;;;;;;;;;;5033682;28;20026;-71
2023/06/28 05:53:24;;;;;;;18.73;3.45;;;;;;;;;;5035644;28;20071;-72
2023/06/28 05:55:50;;;;;;;18.77;3.53;;;;;;;;;;5043457;28;20029;-71
2023/06/28 05:58:16;;;;;;;16.42;3.40;;;;;;;;;;5033757;28;20053;-71
2023/06/28 06:00:43;;;;;;;18.40;3.47;;;;;;;;;;5033317;28;20103;-72
2023/06/28 06:03:09;;;;;;;15.23;2.80;;;;;;;;;;5033023;28;20108;-73
2023/06/28 06:05:35;;;;;;;15.00;3.65;;;;;;;;;;5033854;28;20111;-70
2023/06/28 06:08:01;;;;;;;17.23;3.03;;;;;;;;;;5037421;28;20033;-71
2023/06/28 06:10:27;;;;;;;17.65;3.15;;;;;;;;;;5033707;28;20025;-72
2023/06/28 06:12:54;;;;;;;14.05;3.17;;;;;;;;;;5033308;28;20062;-73
2023/06/28 06:15:20;;;;;;;18.00;3.58;;;;;;;;;;5033218;28;20025;-72
2023/06/28 06:17:46;;;;;;;14.57;2.50;;;;;;;;;;5032961;28;20388;-72
2023/06/28 06:20:16;;;;;;;17.70;3.08;;;;;;;;;;5033610;28;20080;-72
2023/06/28 06:22:44;;;;;;;15.73;2.97;;;;;;;;;;5033725;28;20025;-71
2023/06/28 06:25:11;;;;;;;19.08;2.90;;;;;;;;;;5033323;28;20060;-73
2023/06/28 06:27:37;;;;;;;19.42;3.15;;;;;;;;;;5030356;28;20033;-72
2023/06/28 06:30:04;;;;;;;27.35;3.78;;;;;;;;;;5032829;28;20041;-72
2023/06/28 06:32:30;;;;;;;18.85;3.28;;;;;;;;;;5032495;28;20475;-71
2023/06/28 06:35:00;;;;;;;16.00;2.92;;;;;;;;;;5034069;28;20486;-71
2023/06/28 06:37:26;;;;;;;16.50;3.05;;;;;;;;;;5034389;28;20484;-71
2023/06/28 06:39:56;;;;;;;14.05;3.67;;;;;;;;;;5036304;28;20062;-70
2023/06/28 06:42:22;;;;;;;29.42;3.72;;;;;;;;;;5033679;28;20022;-72
2023/06/28 06:44:48;;;;;;;13.75;2.63;;;;;;;;;;5035889;28;20036;-73
2023/06/28 06:47:14;;;;;;;18.33;3.00;;;;;;;;;;5035822;28;20036;-71
2023/06/28 06:49:40;;;;;;;13.02;2.58;;;;;;;;;;5035381;28;20032;-71
2023/06/28 06:52:06;;;;;;;15.68;3.13;;;;;;;;;;5036741;28;20136;-73
2023/06/28 06:54:32;;;;;;;21.83;5.13;;;;;;;;;;5036672;28;20084;-71
2023/06/28 06:57:04;;;;;;;17.15;3.78;;;;;;;;;;5032440;28;20056;-73
2023/06/28 06:59:30;;;;;;;18.52;3.85;;;;;;;;;;5031862;28;20017;-72
2023/06/28 07:01:56;;;;;;;42.40;12.18;;;;;;;;;;5030699;28;20018;-72
2023/06/28 07:04:22;;;;;;;22.52;4.97;;;;;;;;;;5032145;28;20030;-72
2023/06/28 07:06:48;;;;;;;46.40;15.05;;;;;;;;;;5031899;28;20025;-71
2023/06/28 07:09:15;;;;;;;32.13;11.00;;;;;;;;;;5032465;28;20045;-71
2023/06/28 07:11:41;;;;;;;16.00;3.20;;;;;;;;;;5031412;28;20048;-72
2023/06/28 07:14:07;;;;;;;20.23;6.68;;;;;;;;;;5030577;28;20033;-76
2023/06/28 07:16:33;;;;;;;17.10;3.85;;;;;;;;;;5031887;28;20033;-72
2023/06/28 07:18:59;;;;;;;27.52;10.05;;;;;;;;;;5032624;28;20025;-73
2023/06/28 07:21:25;;;;;;;17.25;5.07;;;;;;;;;;5034353;28;20483;-72
2023/06/28 07:23:51;;;;;;;18.60;3.92;;;;;;;;;;5031521;28;20025;-71
2023/06/28 07:26:17;;;;;;;22.58;6.68;;;;;;;;;;5033897;28;20084;-72
2023/06/28 07:28:43;;;;;;;14.02;4.10;;;;;;;;;;5031861;28;20053;-72
2023/06/28 07:31:09;;;;;;;13.55;2.80;;;;;;;;;;5031338;28;20383;-73
2023/06/28 07:33:35;;;;;;;12.07;3.55;;;;;;;;;;5030776;28;20034;-73
2023/06/28 07:36:01;;;;;;;20.73;4.90;;;;;;;;;;5031392;28;20433;-74
2023/06/28 07:38:27;;;;;;;11.00;2.67;;;;;;;;;;5031277;28;20018;-74
2023/06/28 07:40:53;;;;;;;12.60;2.70;;;;;;;;;;5030646;28;20022;-74
2023/06/28 07:43:20;;;;;;;10.77;2.38;;;;;;;;;;5030438;28;20439;-73
2023/06/28 07:45:46;;;;;;;9.77;2.58;;;;;;;;;;5031146;28;20207;-73
2023/06/28 07:48:12;;;;;;;18.38;4.70;;;;;;;;;;5031178;28;20105;-72
2023/06/28 07:50:38;;;;;;;31.05;15.40;;;;;;;;;;5030535;28;20021;-73
2023/06/28 07:53:04;;;;;;;23.17;4.78;;;;;;;;;;5030123;28;20087;-75
2023/06/28 07:55:30;;;;;;;14.23;4.10;;;;;;;;;;5030265;28;20438;-74
2023/06/28 07:57:57;;;;;;;15.50;3.90;;;;;;;;;;5029671;28;20117;-72
2023/06/28 08:00:23;;;;;;;16.40;4.00;;;;;;;;;;5031673;28;20029;-74
2023/06/28 08:02:49;;;;;;;13.77;3.15;;;;;;;;;;5030806;28;20391;-72
2023/06/28 08:05:15;;;;;;;11.23;2.13;;;;;;;;;;5031612;28;20033;-73
2023/06/28 08:07:41;;;;;;;12.30;2.50;;;;;;;;;;5031183;28;20032;-73
2023/06/28 08:10:08;;;;;;;13.63;3.00;;;;;;;;;;5032048;28;20084;-74
2023/06/28 08:12:34;;;;;;;15.18;2.92;;;;;;;;;;5030547;28;20596;-74
2023/06/28 08:15:00;;;;;;;16.42;3.67;;;;;;;;;;5031479;28;20045;-73
2023/06/28 08:17:26;;;;;;;13.85;3.75;;;;;;;;;;5031259;28;20033;-74
2023/06/28 08:19:54;;;;;;;14.27;2.83;;;;;;;;;;5031926;28;20096;-73
2023/06/28 08:22:20;;;;;;;15.60;3.00;;;;;;;;;;5030813;28;20026;-73
2023/06/28 08:24:46;;;;;;;12.20;3.28;;;;;;;;;;5031691;28;20476;-75
2023/06/28 08:27:12;;;;;;;14.90;2.67;;;;;;;;;;5030180;28;20040;-73
2023/06/28 08:29:38;;;;;;;13.60;2.80;;;;;;;;;;5031575;28;20029;-73
2023/06/28 08:32:04;;;;;;;12.05;2.78;;;;;;;;;;5032120;28;20049;-73
2023/06/28 08:34:30;;;;;;;15.02;3.35;;;;;;;;;;5031768;28;20026;-73
2023/06/28 08:36:56;;;;;;;12.55;3.00;;;;;;;;;;5031888;28;20044;-74
2023/06/28 08:39:22;;;;;;;14.30;3.40;;;;;;;;;;5032097;28;20028;-74
2023/06/28 08:41:49;;;;;;;14.27;2.50;;;;;;;;;;5035720;28;20025;-73
2023/06/28 08:44:15;;;;;;;13.57;2.63;;;;;;;;;;5037966;28;20668;-73
2023/06/28 08:46:43;;;;;;;14.65;3.13;;;;;;;;;;5036494;28;20701;-73
2023/06/28 08:49:09;;;;;;;14.80;2.78;;;;;;;;;;5038809;28;20049;-74
2023/06/28 08:51:35;;;;;;;10.27;2.55;;;;;;;;;;5040672;28;20025;-73
2023/06/28 08:54:02;;;;;;;17.92;2.80;;;;;;;;;;5035968;28;20052;-74
2023/06/28 08:56:28;;;;;;;13.10;2.30;;;;;;;;;;5036869;28;20033;-73
2023/06/28 08:58:54;;;;;;;14.75;5.72;;;;;;;;;;5035266;28;20357;-72
2023/06/28 09:01:24;;;;;;;12.10;3.05;;;;;;;;;;5035159;28;20021;-72
2023/06/28 09:03:50;;;;;;;11.07;2.63;;;;;;;;;;5035961;28;20032;-74
2023/06/28 09:06:16;;;;;;;9.40;2.42;;;;;;;;;;5035589;28;20048;-75
2023/06/28 09:08:44;;;;;;;12.15;3.25;;;;;;;;;;5035798;28;20049;-75
2023/06/28 09:11:11;;;;;;;11.27;2.65;;;;;;;;;;5035437;28;20040;-77
2023/06/28 09:13:37;;;;;;;10.93;2.40;;;;;;;;;;5035268;28;20025;-76
2023/06/28 09:16:08;;;;;;;15.32;3.03;;;;;;;;;;5035606;28;20047;-77
2023/06/28 09:18:35;;;;;;;10.23;2.78;;;;;;;;;;5035716;28;20049;-78
2023/06/28 09:21:01;;;;;;;8.00;2.05;;;;;;;;;;5034946;28;20029;-73
2023/06/28 09:23:29;;;;;;;6.82;2.60;;;;;;;;;;5034457;28;20045;-73
2023/06/28 09:25:55;;;;;;;11.25;2.53;;;;;;;;;;5034655;28;20036;-73
2023/06/28 09:28:24;;;;;;;13.73;2.38;;;;;;;;;;5034484;28;20502;-73
2023/06/28 09:30:51;;;;;;;12.45;3.25;;;;;;;;;;5034755;28;20025;-74
2023/06/28 09:33:18;;;;;;;13.57;3.25;;;;;;;;;;5034329;28;20032;-73
2023/06/28 09:35:44;;;;;;;14.23;3.00;;;;;;;;;;5034562;28;20025;-74
2023/06/28 09:38:11;;;;;;;14.10;3.17;;;;;;;;;;5034564;28;20056;-74
2023/06/28 09:40:37;;;;;;;13.10;2.97;;;;;;;;;;5034085;28;20021;-74
2023/06/28 09:43:03;;;;;;;17.42;3.33;;;;;;;;;;5033997;28;20026;-74
2023/06/28 09:45:30;;;;;;;13.88;3.05;;;;;;;;;;5034209;28;20025;-74
2023/06/28 09:48:00;;;;;;;15.30;3.25;;;;;;;;;;5034539;28;20057;-74
2023/06/28 09:50:36;;;;;;;12.15;2.80;;;;;;;;;;5034180;28;20028;-71
2023/06/28 09:53:03;;;;;;;15.75;3.42;;;;;;;;;;5033183;28;20499;-75
2023/06/28 09:55:29;;;;;;;14.98;3.05;;;;;;;;;;5034428;28;20025;-74
2023/06/28 09:57:56;;;;;;;11.00;3.40;;;;;;;;;;5035453;28;20030;-74
2023/06/28 10:00:23;;;;;;;8.25;2.78;;;;;;;;;;5035348;28;20117;-74
2023/06/28 10:02:49;;;;;;;11.93;3.08;;;;;;;;;;5034979;28;20017;-73
2023/06/28 10:05:16;;;;;;;14.85;3.47;;;;;;;;;;5034445;28;20451;-73
2023/06/28 10:07:43;;;;;;;12.20;2.63;;;;;;;;;;5033945;28;20026;-74
2023/06/28 10:10:09;;;;;;;11.35;3.08;;;;;;;;;;5033443;28;20352;-73
2023/06/28 10:12:35;;;;;;;12.98;2.72;;;;;;;;;;5036074;28;20032;-73
2023/06/28 10:15:07;;;;;;;10.75;2.60;;;;;;;;;;5033664;28;20025;-73
2023/06/28 10:17:35;;;;;;;12.35;2.33;;;;;;;;;;5034655;28;20030;-76
2023/06/28 10:20:02;;;;;;;9.73;2.20;;;;;;;;;;5028445;28;20025;-75
2023/06/28 10:22:29;;;;;;;13.30;2.75;;;;;;;;;;5026783;28;20014;-75
2023/06/28 10:24:55;;;;;;;13.27;2.20;;;;;;;;;;5021906;28;20025;-74
2023/06/28 10:27:22;;;;;;;7.35;2.10;;;;;;;;;;5029771;28;20112;-72
2023/06/28 10:29:50;;;;;;;8.73;2.47;;;;;;;;;;5023180;28;20025;-74
2023/06/28 10:32:16;;;;;;;9.77;2.45;;;;;;;;;;5019727;28;20030;-73
2023/06/28 10:34:43;;;;;;;12.63;2.75;;;;;;;;;;5034082;28;20529;-74
2023/06/28 10:37:09;;;;;;;10.48;2.03;;;;;;;;;;5015206;28;20026;-73
2023/06/28 10:39:36;;;;;;;8.98;2.40;;;;;;;;;;5014783;28;20014;-73
2023/06/28 10:42:02;;;;;;;12.43;2.10;;;;;;;;;;5020910;28;20025;-74
2023/06/28 10:44:28;;;;;;;10.15;2.00;;;;;;;;;;5023935;28;20022;-73
2023/06/28 10:47:13;;;;;;;7.15;2.17;;;;;;;;;;5029140;28;20024;-73
2023/06/28 10:49:42;;;;;;;6.88;1.73;;;;;;;;;;5020706;28;20014;-74
2023/06/28 10:52:14;;;;;;;11.73;2.30;;;;;;;;;;5030436;28;20022;-74
2023/06/28 10:54:40;;;;;;;7.32;2.10;;;;;;;;;;5030585;28;20057;-74
2023/06/28 10:57:10;;;;;;;9.80;2.85;;;;;;;;;;5016163;28;20018;-74
2023/06/28 10:59:42;;;;;;;7.80;3.25;;;;;;;;;;5021845;28;20022;-74
2023/06/28 11:02:08;;;;;;;9.25;3.80;;;;;;;;;;5030323;28;20617;-74
2023/06/28 11:04:49;;;;;;;7.45;2.70;;;;;;;;;;5023583;28;20025;-76
2023/06/28 11:07:16;;;;;;;8.38;1.92;;;;;;;;;;5034770;28;20447;-74
2023/06/28 11:10:02;;;;;;;11.10;3.33;;;;;;;;;;5033438;28;20033;-74
2023/06/28 11:12:28;;;;;;;5.22;1.83;;;;;;;;;;5031851;28;20083;-74
2023/06/28 11:15:13;;;;;;;8.93;2.10;;;;;;;;;;5032534;28;20025;-74
2023/06/28 11:17:40;;;;;;;9.23;2.00;;;;;;;;;;5032809;28;20048;-74
2023/06/28 11:20:06;;;;;;;10.25;1.98;;;;;;;;;;5034334;28;20044;-73
2023/06/28 11:22:52;;;;;;;7.85;1.95;;;;;;;;;;5020595;28;20026;-73
2023/06/28 11:25:20;;;;;;;8.30;2.30;;;;;;;;;;5013826;28;20030;-75
2023/06/28 11:27:47;;;;;;;11.07;2.35;;;;;;;;;;5022250;28;20026;-74
2023/06/28 11:30:13;;;;;;;7.53;2.10;;;;;;;;;;5013456;28;20388;-74
2023/06/28 11:32:40;;;;;;;8.65;2.17;;;;;;;;;;5013032;28;20503;-74
2023/06/28 11:35:06;;;;;;;6.22;1.42;;;;;;;;;;5013045;28;20091;-75
2023/06/28 11:37:32;;;;;;;5.35;1.73;;;;;;;;;;5012951;28;20044;-73
2023/06/28 11:40:03;;;;;;;7.35;1.77;;;;;;;;;;5013431;28;20351;-75
2023/06/28 11:42:29;;;;;;;6.53;1.83;;;;;;;;;;5013927;28;20372;-72
2023/06/28 11:44:55;;;;;;;9.55;2.00;;;;;;;;;;5013582;28;20038;-73
2023/06/28 11:47:22;;;;;;;9.80;2.20;;;;;;;;;;5012364;28;20026;-73
2023/06/28 11:49:48;;;;;;;6.72;1.90;;;;;;;;;;5012037;28;20431;-73
2023/06/28 11:52:17;;;;;;;8.23;2.20;;;;;;;;;;5011677;28;20064;-73
2023/06/28 11:54:43;;;;;;;8.82;2.80;;;;;;;;;;5013855;28;20033;-74
2023/06/28 11:57:10;;;;;;;8.43;2.40;;;;;;;;;;5012183;28;20495;-73
2023/06/28 11:59:37;;;;;;;7.55;2.47;;;;;;;;;;5012273;28;20033;-74
2023/06/28 12:02:04;;;;;;;6.85;1.92;;;;;;;;;;5011871;28;20030;-75
2023/06/28 12:04:31;;;;;;;5.65;1.90;;;;;;;;;;5012340;28;20476;-73
2023/06/28 12:06:59;;;;;;;7.30;1.95;;;;;;;;;;5016429;28;20030;-73
2023/06/28 12:09:29;;;;;;;9.48;2.65;;;;;;;;;;5012571;28;20095;-74
2023/06/28 12:11:56;;;;;;;11.48;2.05;;;;;;;;;;5012088;28;20018;-74
2023/06/28 12:14:23;;;;;;;8.90;1.92;;;;;;;;;;5012231;28;20574;-73
2023/06/28 12:16:52;;;;;;;4.47;1.67;;;;;;;;;;5012454;28;20029;-73
2023/06/28 12:19:19;;;;;;;5.22;1.73;;;;;;;;;;5012236;28;20022;-74
2023/06/28 12:21:45;;;;;;;6.28;1.85;;;;;;;;;;5011980;28;20105;-74
2023/06/28 12:24:12;;;;;;;8.88;2.10;;;;;;;;;;5011094;28;20380;-74
2023/06/28 12:26:38;;;;;;;7.88;1.90;;;;;;;;;;5011199;28;20033;-75
2023/06/28 12:29:08;;;;;;;7.85;2.13;;;;;;;;;;5013473;28;20391;-75
2023/06/28 12:31:46;;;;;;;8.75;1.90;;;;;;;;;;5017370;28;20037;-73
2023/06/28 12:34:13;;;;;;;7.68;2.05;;;;;;;;;;5013291;28;20022;-73
2023/06/28 12:36:40;;;;;;;6.25;2.33;;;;;;;;;;5012222;28;20030;-73
2023/06/28 12:39:07;;;;;;;6.90;1.90;;;;;;;;;;5011879;28;20022;-74
2023/06/28 12:41:33;;;;;;;4.15;1.60;;;;;;;;;;5011917;28;20030;-74
2023/06/28 12:43:59;;;;;;;7.78;1.77;;;;;;;;;;5011394;28;20042;-73
2023/06/28 12:46:27;;;;;;;10.32;2.35;;;;;;;;;;5012216;28;20076;-75
2023/06/28 12:48:57;;;;;;;10.30;2.67;;;;;;;;;;5013070;28;20168;-75
2023/06/28 12:51:23;;;;;;;7.90;2.08;;;;;;;;;;5014689;28;20385;-72
2023/06/28 12:53:52;;;;;;;8.07;2.00;;;;;;;;;;5012287;28;20491;-74
2023/06/28 12:56:18;;;;;;;6.93;2.17;;;;;;;;;;5013311;28;20038;-73
2023/06/28 12:58:44;;;;;;;10.48;2.28;;;;;;;;;;5012813;28;20046;-76
2023/06/28 13:01:10;;;;;;;9.88;3.20;;;;;;;;;;5011701;28;20026;-74
2023/06/28 13:03:36;;;;;;;13.45;2.30;;;;;;;;;;5011295;28;20022;-73
2023/06/28 13:06:02;;;;;;;7.00;2.05;;;;;;;;;;5012453;28;20030;-74
2023/06/28 13:08:29;;;;;;;7.90;2.00;;;;;;;;;;5011423;28;20018;-74
2023/06/28 13:10:58;;;;;;;11.55;2.20;;;;;;;;;;5014599;28;20036;-73
2023/06/28 13:13:25;;;;;;;9.98;2.58;;;;;;;;;;5030255;28;20025;-72
2023/06/28 13:15:51;;;;;;;5.40;1.60;;;;;;;;;;5030757;28;20021;-73
2023/06/28 13:18:17;;;;;;;8.57;1.95;;;;;;;;;;5030790;28;20033;-73
2023/06/28 13:20:43;;;;;;;10.43;1.67;;;;;;;;;;5030543;28;20028;-72
2023/06/28 13:23:09;;;;;;;9.43;2.10;;;;;;;;;;5030228;28;20430;-73
2023/06/28 13:25:35;;;;;;;8.25;3.33;;;;;;;;;;5030499;28;20033;-74
2023/06/28 13:28:01;;;;;;;7.38;2.08;;;;;;;;;;5032632;28;20033;-74
2023/06/28 13:30:28;;;;;;;7.70;2.63;;;;;;;;;;5034056;28;20053;-74
2023/06/28 13:32:54;;;;;;;8.80;2.03;;;;;;;;;;5033664;28;20109;-75
2023/06/28 13:35:20;;;;;;;7.30;2.10;;;;;;;;;;5036416;28;20078;-76
2023/06/28 13:37:48;;;;;;;11.27;2.42;;;;;;;;;;5036709;28;20022;-74
2023/06/28 13:40:15;;;;;;;8.55;2.10;;;;;;;;;;5035390;28;20025;-74
2023/06/28 13:42:43;;;;;;;8.25;2.05;;;;;;;;;;5036156;28;20467;-75
2023/06/28 13:45:09;;;;;;;5.63;1.77;;;;;;;;;;5034080;28;20025;-74
2023/06/28 13:47:35;;;;;;;6.47;1.92;;;;;;;;;;5034112;28;20033;-74
2023/06/28 13:50:01;;;;;;;4.82;2.13;;;;;;;;;;5036327;28;20033;-75
2023/06/28 13:52:27;;;;;;;4.05;2.10;;;;;;;;;;5034927;28;20026;-74
2023/06/28 13:54:53;;;;;;;6.32;1.58;;;;;;;;;;5034198;28;20417;-73
2023/06/28 13:57:19;;;;;;;7.97;2.28;;;;;;;;;;5034310;28;20017;-77
2023/06/28 13:59:45;;;;;;;7.13;1.83;;;;;;;;;;5034626;28;20025;-77
2023/06/28 14:02:12;;;;;;;6.40;1.90;;;;;;;;;;5033734;28;20025;-73
2023/06/28 14:04:38;;;;;;;5.80;1.50;;;;;;;;;;5034098;28;20021;-72
2023/06/28 14:07:04;;;;;;;7.93;2.38;;;;;;;;;;5034447;28;20031;-73
2023/06/28 14:09:30;;;;;;;7.85;2.55;;;;;;;;;;5034400;28;20041;-75
2023/06/28 14:11:56;;;;;;;8.57;2.20;;;;;;;;;;5033993;28;20022;-74
2023/06/28 14:14:22;;;;;;;4.47;1.70;;;;;;;;;;5033524;28;20049;-73
2023/06/28 14:16:48;;;;;;;7.32;1.73;;;;;;;;;;5034179;28;20044;-74
2023/06/28 14:19:14;;;;;;;9.40;2.08;;;;;;;;;;5034213;28;20535;-76
2023/06/28 14:21:40;;;;;;;4.65;1.98;;;;;;;;;;5033993;28;20032;-77
2023/06/28 14:24:07;;;;;;;8.18;1.98;;;;;;;;;;5033698;28;20072;-76
2023/06/28 14:26:32;;;;;;;5.32;1.80;;;;;;;;;;5034650;28;20040;-73
2023/06/28 14:29:00;;;;;;;10.82;2.95;;;;;;;;;;5032368;28;20025;-75
2023/06/28 14:31:26;;;;;;;6.18;1.85;;;;;;;;;;5033839;28;20080;-75